Terminal Aerodrome Forecast
Issued by NWS Jackson, MS

Home | Current Version | Previous Version | Text Only | Print | Product List | Glossary On
Versions: 1 2 3 4 5 6 7 8 9 10 11 12 13 14 15
000
FTUS44 KJAN 112300
TAFHBG
TAF
KHBG 112340Z 1200/1224 30004KT P6SM VCTS SCT040CB SCT100
     FM120300 VRB03KT P6SM SCT100
     FM121000 00000KT 6SM BR SKC
     FM121300 03004KT P6SM SCT040=

USA.gov is the U.S. government's official web portal to all federal, state and local government web resources and services.